sensor_id;sensor_type;location;lat;lon;timestamp;P1;durP1;ratioP1;P2;durP2;ratioP2
48205;SDS011;33995;48.202;16.260;2023-04-24T00:01:36;6.10;;;5.50;;
48205;SDS011;33995;48.202;16.260;2023-04-24T00:04:08;5.80;;;5.30;;
48205;SDS011;33995;48.202;16.260;2023-04-24T00:06:37;5.57;;;5.10;;
48205;SDS011;33995;48.202;16.260;2023-04-24T00:09:07;6.07;;;5.57;;
48205;SDS011;33995;48.202;16.260;2023-04-24T00:11:37;5.83;;;5.23;;
48205;SDS011;33995;48.202;16.260;2023-04-24T00:14:04;5.40;;;4.97;;
48205;SDS011;33995;48.202;16.260;2023-04-24T00:16:31;5.93;;;5.37;;
48205;SDS011;33995;48.202;16.260;2023-04-24T00:18:58;5.50;;;5.00;;
48205;SDS011;33995;48.202;16.260;2023-04-24T00:21:27;6.00;;;5.43;;
48205;SDS011;33995;48.202;16.260;2023-04-24T00:23:54;5.70;;;5.20;;
48205;SDS011;33995;48.202;16.260;2023-04-24T00:26:21;6.10;;;5.50;;
48205;SDS011;33995;48.202;16.260;2023-04-24T00:28:49;6.00;;;5.50;;
48205;SDS011;33995;48.202;16.260;2023-04-24T00:31:17;5.53;;;4.90;;
48205;SDS011;33995;48.202;16.260;2023-04-24T00:33:45;6.37;;;5.20;;
48205;SDS011;33995;48.202;16.260;2023-04-24T00:36:13;6.97;;;5.23;;
48205;SDS011;33995;48.202;16.260;2023-04-24T00:38:40;6.40;;;5.47;;
48205;SDS011;33995;48.202;16.260;2023-04-24T00:41:07;5.77;;;5.27;;
48205;SDS011;33995;48.202;16.260;2023-04-24T00:43:34;5.87;;;5.27;;
48205;SDS011;33995;48.202;16.260;2023-04-24T00:46:03;5.87;;;5.30;;
48205;SDS011;33995;48.202;16.260;2023-04-24T00:48:30;6.00;;;5.40;;
48205;SDS011;33995;48.202;16.260;2023-04-24T00:50:57;5.87;;;5.37;;
48205;SDS011;33995;48.202;16.260;2023-04-24T00:53:25;5.73;;;5.13;;
48205;SDS011;33995;48.202;16.260;2023-04-24T00:55:52;6.03;;;5.43;;
48205;SDS011;33995;48.202;16.260;2023-04-24T00:58:19;6.13;;;5.63;;
48205;SDS011;33995;48.202;16.260;2023-04-24T01:00:47;6.13;;;5.60;;
48205;SDS011;33995;48.202;16.260;2023-04-24T01:03:20;6.33;;;5.67;;
48205;SDS011;33995;48.202;16.260;2023-04-24T01:05:49;6.00;;;5.40;;
48205;SDS011;33995;48.202;16.260;2023-04-24T01:08:16;6.20;;;5.70;;
48205;SDS011;33995;48.202;16.260;2023-04-24T01:10:44;6.60;;;5.83;;
48205;SDS011;33995;48.202;16.260;2023-04-24T01:13:13;6.60;;;5.97;;
48205;SDS011;33995;48.202;16.260;2023-04-24T01:15:43;7.27;;;6.17;;
48205;SDS011;33995;48.202;16.260;2023-04-24T01:18:11;6.50;;;5.90;;
48205;SDS011;33995;48.202;16.260;2023-04-24T01:20:39;6.80;;;6.20;;
48205;SDS011;33995;48.202;16.260;2023-04-24T01:23:08;7.70;;;6.03;;
48205;SDS011;33995;48.202;16.260;2023-04-24T01:25:36;6.07;;;5.47;;
48205;SDS011;33995;48.202;16.260;2023-04-24T01:28:03;7.37;;;5.83;;
48205;SDS011;33995;48.202;16.260;2023-04-24T01:30:31;6.37;;;5.77;;
48205;SDS011;33995;48.202;16.260;2023-04-24T01:32:58;7.00;;;6.00;;
48205;SDS011;33995;48.202;16.260;2023-04-24T01:35:25;6.70;;;6.10;;
48205;SDS011;33995;48.202;16.260;2023-04-24T01:37:53;7.33;;;6.63;;
48205;SDS011;33995;48.202;16.260;2023-04-24T01:40:21;8.23;;;6.30;;
48205;SDS011;33995;48.202;16.260;2023-04-24T01:42:48;6.53;;;5.97;;
48205;SDS011;33995;48.202;16.260;2023-04-24T01:45:16;6.97;;;6.27;;
48205;SDS011;33995;48.202;16.260;2023-04-24T01:47:45;7.30;;;6.60;;
48205;SDS011;33995;48.202;16.260;2023-04-24T01:50:17;6.20;;;5.67;;
48205;SDS011;33995;48.202;16.260;2023-04-24T01:52:45;6.57;;;5.97;;
48205;SDS011;33995;48.202;16.260;2023-04-24T01:55:12;6.40;;;5.80;;
48205;SDS011;33995;48.202;16.260;2023-04-24T01:57:39;7.17;;;6.00;;
48205;SDS011;33995;48.202;16.260;2023-04-24T02:00:09;6.30;;;5.70;;
48205;SDS011;33995;48.202;16.260;2023-04-24T02:02:42;6.53;;;5.70;;
48205;SDS011;33995;48.202;16.260;2023-04-24T02:05:13;5.93;;;5.40;;
48205;SDS011;33995;48.202;16.260;2023-04-24T02:07:40;7.27;;;5.67;;
48205;SDS011;33995;48.202;16.260;2023-04-24T02:10:09;6.20;;;5.60;;
48205;SDS011;33995;48.202;16.260;2023-04-24T02:12:41;7.57;;;6.10;;
48205;SDS011;33995;48.202;16.260;2023-04-24T02:15:08;6.67;;;6.07;;
48205;SDS011;33995;48.202;16.260;2023-04-24T02:17:36;6.50;;;5.90;;
48205;SDS011;33995;48.202;16.260;2023-04-24T02:20:07;7.07;;;6.00;;
48205;SDS011;33995;48.202;16.260;2023-04-24T02:22:34;6.33;;;5.73;;
48205;SDS011;33995;48.202;16.260;2023-04-24T02:25:01;5.90;;;5.40;;
48205;SDS011;33995;48.202;16.260;2023-04-24T02:27:29;5.67;;;5.10;;
48205;SDS011;33995;48.202;16.260;2023-04-24T02:29:56;4.83;;;4.10;;
48205;SDS011;33995;48.202;16.260;2023-04-24T02:32:24;4.57;;;4.17;;
48205;SDS011;33995;48.202;16.260;2023-04-24T02:34:51;4.67;;;4.00;;
48205;SDS011;33995;48.202;16.260;2023-04-24T02:37:18;4.30;;;3.90;;
48205;SDS011;33995;48.202;16.260;2023-04-24T02:39:45;4.40;;;4.00;;
48205;SDS011;33995;48.202;16.260;2023-04-24T02:42:13;4.80;;;4.07;;
48205;SDS011;33995;48.202;16.260;2023-04-24T02:44:40;4.53;;;4.13;;
48205;SDS011;33995;48.202;16.260;2023-04-24T02:47:08;4.50;;;4.10;;
48205;SDS011;33995;48.202;16.260;2023-04-24T02:49:37;4.53;;;4.13;;
48205;SDS011;33995;48.202;16.260;2023-04-24T02:52:04;5.70;;;4.20;;
48205;SDS011;33995;48.202;16.260;2023-04-24T02:54:31;4.73;;;4.27;;
48205;SDS011;33995;48.202;16.260;2023-04-24T02:56:58;4.23;;;3.83;;
48205;SDS011;33995;48.202;16.260;2023-04-24T02:59:27;4.63;;;4.23;;
48205;SDS011;33995;48.202;16.260;2023-04-24T03:01:55;4.23;;;3.83;;
48205;SDS011;33995;48.202;16.260;2023-04-24T03:04:24;4.20;;;3.80;;
48205;SDS011;33995;48.202;16.260;2023-04-24T03:06:53;4.20;;;3.90;;
48205;SDS011;33995;48.202;16.260;2023-04-24T03:09:21;4.40;;;3.80;;
48205;SDS011;33995;48.202;16.260;2023-04-24T03:11:48;4.20;;;3.80;;
48205;SDS011;33995;48.202;16.260;2023-04-24T03:14:16;4.27;;;3.97;;
48205;SDS011;33995;48.202;16.260;2023-04-24T03:16:44;4.03;;;3.67;;
48205;SDS011;33995;48.202;16.260;2023-04-24T03:19:13;4.30;;;3.90;;
48205;SDS011;33995;48.202;16.260;2023-04-24T03:21:59;4.33;;;3.70;;
48205;SDS011;33995;48.202;16.260;2023-04-24T03:24:29;4.27;;;3.73;;
48205;SDS011;33995;48.202;16.260;2023-04-24T03:26:58;4.00;;;3.70;;
48205;SDS011;33995;48.202;16.260;2023-04-24T03:29:44;4.50;;;3.80;;
48205;SDS011;33995;48.202;16.260;2023-04-24T03:32:15;4.30;;;3.87;;
48205;SDS011;33995;48.202;16.260;2023-04-24T03:34:47;4.17;;;3.77;;
48205;SDS011;33995;48.202;16.260;2023-04-24T03:37:15;4.20;;;3.80;;
48205;SDS011;33995;48.202;16.260;2023-04-24T03:39:50;3.87;;;3.53;;
48205;SDS011;33995;48.202;16.260;2023-04-24T03:42:22;5.40;;;4.07;;
48205;SDS011;33995;48.202;16.260;2023-04-24T03:44:54;4.03;;;3.43;;
48205;SDS011;33995;48.202;16.260;2023-04-24T03:47:26;4.17;;;3.87;;
48205;SDS011;33995;48.202;16.260;2023-04-24T03:49:57;3.90;;;3.60;;
48205;SDS011;33995;48.202;16.260;2023-04-24T03:52:24;3.77;;;3.43;;
48205;SDS011;33995;48.202;16.260;2023-04-24T03:54:51;3.93;;;3.63;;
48205;SDS011;33995;48.202;16.260;2023-04-24T03:57:18;5.00;;;3.90;;
48205;SDS011;33995;48.202;16.260;2023-04-24T03:59:59;4.07;;;3.60;;
48205;SDS011;33995;48.202;16.260;2023-04-24T04:02:27;4.10;;;3.70;;
48205;SDS011;33995;48.202;16.260;2023-04-24T04:04:54;4.13;;;3.83;;
48205;SDS011;33995;48.202;16.260;2023-04-24T04:07:21;4.00;;;3.63;;
48205;SDS011;33995;48.202;16.260;2023-04-24T04:09:48;3.80;;;3.50;;
48205;SDS011;33995;48.202;16.260;2023-04-24T04:12:16;4.17;;;3.37;;
48205;SDS011;33995;48.202;16.260;2023-04-24T04:14:42;3.80;;;3.50;;
48205;SDS011;33995;48.202;16.260;2023-04-24T04:17:10;3.57;;;3.27;;
48205;SDS011;33995;48.202;16.260;2023-04-24T04:19:37;3.97;;;3.50;;
48205;SDS011;33995;48.202;16.260;2023-04-24T04:22:04;3.60;;;3.30;;
48205;SDS011;33995;48.202;16.260;2023-04-24T04:24:47;3.50;;;3.20;;
48205;SDS011;33995;48.202;16.260;2023-04-24T04:27:14;3.57;;;3.27;;
48205;SDS011;33995;48.202;16.260;2023-04-24T04:29:53;3.77;;;3.47;;
48205;SDS011;33995;48.202;16.260;2023-04-24T04:32:20;3.60;;;3.30;;
48205;SDS011;33995;48.202;16.260;2023-04-24T04:34:48;4.20;;;3.40;;
48205;SDS011;33995;48.202;16.260;2023-04-24T04:37:15;3.43;;;3.13;;
48205;SDS011;33995;48.202;16.260;2023-04-24T04:39:52;4.20;;;3.10;;
48205;SDS011;33995;48.202;16.260;2023-04-24T04:42:23;3.33;;;3.03;;
48205;SDS011;33995;48.202;16.260;2023-04-24T04:44:51;3.57;;;3.07;;
48205;SDS011;33995;48.202;16.260;2023-04-24T04:47:23;3.80;;;3.40;;
48205;SDS011;33995;48.202;16.260;2023-04-24T04:49:55;3.30;;;3.00;;
48205;SDS011;33995;48.202;16.260;2023-04-24T04:52:25;3.70;;;3.20;;
48205;SDS011;33995;48.202;16.260;2023-04-24T04:55:20;4.47;;;3.10;;
48205;SDS011;33995;48.202;16.260;2023-04-24T04:58:07;3.87;;;2.93;;
48205;SDS011;33995;48.202;16.260;2023-04-24T05:00:35;3.10;;;2.80;;
48205;SDS011;33995;48.202;16.260;2023-04-24T05:03:15;3.33;;;3.00;;
48205;SDS011;33995;48.202;16.260;2023-04-24T05:05:57;3.30;;;3.00;;
48205;SDS011;33995;48.202;16.260;2023-04-24T05:08:25;3.40;;;2.90;;
48205;SDS011;33995;48.202;16.260;2023-04-24T05:10:54;3.60;;;3.30;;
48205;SDS011;33995;48.202;16.260;2023-04-24T05:13:22;5.23;;;3.10;;
48205;SDS011;33995;48.202;16.260;2023-04-24T05:16:10;3.43;;;3.13;;
48205;SDS011;33995;48.202;16.260;2023-04-24T05:18:38;3.73;;;3.37;;
48205;SDS011;33995;48.202;16.260;2023-04-24T05:21:09;3.90;;;3.60;;
48205;SDS011;33995;48.202;16.260;2023-04-24T05:23:40;3.83;;;3.43;;
48205;SDS011;33995;48.202;16.260;2023-04-24T05:26:07;4.17;;;3.40;;
48205;SDS011;33995;48.202;16.260;2023-04-24T05:28:34;3.90;;;3.60;;
48205;SDS011;33995;48.202;16.260;2023-04-24T05:31:07;4.07;;;3.67;;
48205;SDS011;33995;48.202;16.260;2023-04-24T05:33:36;3.47;;;3.17;;
48205;SDS011;33995;48.202;16.260;2023-04-24T05:36:06;3.70;;;3.40;;
48205;SDS011;33995;48.202;16.260;2023-04-24T05:38:33;4.30;;;3.37;;
48205;SDS011;33995;48.202;16.260;2023-04-24T05:41:01;3.33;;;3.03;;
48205;SDS011;33995;48.202;16.260;2023-04-24T05:43:28;3.50;;;3.20;;
48205;SDS011;33995;48.202;16.260;2023-04-24T05:45:55;3.33;;;3.10;;
48205;SDS011;33995;48.202;16.260;2023-04-24T05:48:23;6.10;;;3.07;;
48205;SDS011;33995;48.202;16.260;2023-04-24T05:50:50;3.40;;;3.10;;
48205;SDS011;33995;48.202;16.260;2023-04-24T05:53:19;3.30;;;3.00;;
48205;SDS011;33995;48.202;16.260;2023-04-24T05:55:47;6.03;;;3.43;;
48205;SDS011;33995;48.202;16.260;2023-04-24T05:58:14;3.37;;;3.07;;
48205;SDS011;33995;48.202;16.260;2023-04-24T06:00:41;3.37;;;3.07;;
48205;SDS011;33995;48.202;16.260;2023-04-24T06:03:11;3.40;;;2.90;;
48205;SDS011;33995;48.202;16.260;2023-04-24T06:05:39;3.20;;;2.90;;
48205;SDS011;33995;48.202;16.260;2023-04-24T06:08:07;3.30;;;3.10;;
48205;SDS011;33995;48.202;16.260;2023-04-24T06:10:42;3.20;;;2.90;;
48205;SDS011;33995;48.202;16.260;2023-04-24T06:13:10;3.07;;;2.80;;
48205;SDS011;33995;48.202;16.260;2023-04-24T06:15:41;3.10;;;2.90;;
48205;SDS011;33995;48.202;16.260;2023-04-24T06:18:15;3.23;;;3.03;;
48205;SDS011;33995;48.202;16.260;2023-04-24T06:20:44;3.37;;;3.07;;
48205;SDS011;33995;48.202;16.260;2023-04-24T06:23:12;3.97;;;3.20;;
48205;SDS011;33995;48.202;16.260;2023-04-24T06:25:39;2.90;;;2.60;;
48205;SDS011;33995;48.202;16.260;2023-04-24T06:28:06;3.23;;;3.03;;
48205;SDS011;33995;48.202;16.260;2023-04-24T06:30:34;3.20;;;3.00;;
48205;SDS011;33995;48.202;16.260;2023-04-24T06:33:02;3.47;;;3.17;;
48205;SDS011;33995;48.202;16.260;2023-04-24T06:35:46;3.53;;;3.10;;
48205;SDS011;33995;48.202;16.260;2023-04-24T06:38:13;3.13;;;2.83;;
48205;SDS011;33995;48.202;16.260;2023-04-24T06:40:41;3.70;;;2.70;;
48205;SDS011;33995;48.202;16.260;2023-04-24T06:43:10;2.93;;;2.63;;
48205;SDS011;33995;48.202;16.260;2023-04-24T06:45:38;2.63;;;2.43;;
48205;SDS011;33995;48.202;16.260;2023-04-24T06:48:06;2.87;;;2.50;;
48205;SDS011;33995;48.202;16.260;2023-04-24T06:50:35;2.67;;;2.47;;
48205;SDS011;33995;48.202;16.260;2023-04-24T06:53:03;2.37;;;2.17;;
48205;SDS011;33995;48.202;16.260;2023-04-24T06:55:30;3.10;;;2.30;;
48205;SDS011;33995;48.202;16.260;2023-04-24T06:57:57;2.37;;;2.10;;
48205;SDS011;33995;48.202;16.260;2023-04-24T07:00:25;2.77;;;2.30;;
48205;SDS011;33995;48.202;16.260;2023-04-24T07:02:52;2.60;;;2.40;;
48205;SDS011;33995;48.202;16.260;2023-04-24T07:05:19;2.23;;;2.10;;
48205;SDS011;33995;48.202;16.260;2023-04-24T07:07:47;2.30;;;2.10;;
48205;SDS011;33995;48.202;16.260;2023-04-24T07:10:15;2.47;;;2.23;;
48205;SDS011;33995;48.202;16.260;2023-04-24T07:12:45;2.40;;;2.20;;
48205;SDS011;33995;48.202;16.260;2023-04-24T07:15:14;2.70;;;2.27;;
48205;SDS011;33995;48.202;16.260;2023-04-24T07:17:41;2.60;;;2.30;;
48205;SDS011;33995;48.202;16.260;2023-04-24T07:20:10;2.40;;;2.20;;
48205;SDS011;33995;48.202;16.260;2023-04-24T07:22:38;2.40;;;2.20;;
48205;SDS011;33995;48.202;16.260;2023-04-24T07:25:05;2.20;;;2.10;;
48205;SDS011;33995;48.202;16.260;2023-04-24T07:27:33;2.47;;;2.17;;
48205;SDS011;33995;48.202;16.260;2023-04-24T07:30:03;2.33;;;2.10;;
48205;SDS011;33995;48.202;16.260;2023-04-24T07:32:31;2.10;;;2.00;;
48205;SDS011;33995;48.202;16.260;2023-04-24T07:34:58;2.83;;;2.20;;
48205;SDS011;33995;48.202;16.260;2023-04-24T07:37:26;2.17;;;1.97;;
48205;SDS011;33995;48.202;16.260;2023-04-24T07:39:54;2.23;;;2.10;;
48205;SDS011;33995;48.202;16.260;2023-04-24T07:42:21;1.90;;;1.80;;
48205;SDS011;33995;48.202;16.260;2023-04-24T07:44:50;2.73;;;1.90;;
48205;SDS011;33995;48.202;16.260;2023-04-24T07:47:19;2.10;;;2.00;;
48205;SDS011;33995;48.202;16.260;2023-04-24T07:49:48;2.00;;;1.90;;
48205;SDS011;33995;48.202;16.260;2023-04-24T07:52:15;2.47;;;2.27;;
48205;SDS011;33995;48.202;16.260;2023-04-24T07:54:43;3.30;;;2.07;;
48205;SDS011;33995;48.202;16.260;2023-04-24T07:57:11;2.33;;;2.13;;
48205;SDS011;33995;48.202;16.260;2023-04-24T07:59:38;2.73;;;2.43;;
48205;SDS011;33995;48.202;16.260;2023-04-24T08:02:05;2.40;;;2.20;;
48205;SDS011;33995;48.202;16.260;2023-04-24T08:04:33;2.10;;;1.90;;
48205;SDS011;33995;48.202;16.260;2023-04-24T08:07:00;2.40;;;2.20;;
48205;SDS011;33995;48.202;16.260;2023-04-24T08:09:28;2.40;;;2.13;;
48205;SDS011;33995;48.202;16.260;2023-04-24T08:11:55;2.77;;;2.30;;
48205;SDS011;33995;48.202;16.260;2023-04-24T08:14:23;2.60;;;2.10;;
48205;SDS011;33995;48.202;16.260;2023-04-24T08:16:50;2.10;;;2.00;;
48205;SDS011;33995;48.202;16.260;2023-04-24T08:19:17;2.13;;;2.03;;
48205;SDS011;33995;48.202;16.260;2023-04-24T08:21:45;2.47;;;2.20;;
48205;SDS011;33995;48.202;16.260;2023-04-24T08:24:13;2.20;;;2.00;;
48205;SDS011;33995;48.202;16.260;2023-04-24T08:26:40;2.07;;;1.97;;
48205;SDS011;33995;48.202;16.260;2023-04-24T08:29:08;2.13;;;1.93;;
48205;SDS011;33995;48.202;16.260;2023-04-24T08:31:37;2.33;;;1.80;;
48205;SDS011;33995;48.202;16.260;2023-04-24T08:34:04;1.53;;;1.43;;
48205;SDS011;33995;48.202;16.260;2023-04-24T08:36:31;1.57;;;1.47;;
48205;SDS011;33995;48.202;16.260;2023-04-24T08:39:12;1.57;;;1.40;;
48205;SDS011;33995;48.202;16.260;2023-04-24T08:41:42;1.40;;;1.30;;
48205;SDS011;33995;48.202;16.260;2023-04-24T08:44:09;2.03;;;1.50;;
48205;SDS011;33995;48.202;16.260;2023-04-24T08:46:38;1.40;;;1.30;;
48205;SDS011;33995;48.202;16.260;2023-04-24T08:49:08;1.73;;;1.20;;
48205;SDS011;33995;48.202;16.260;2023-04-24T08:51:36;1.23;;;1.13;;
48205;SDS011;33995;48.202;16.260;2023-04-24T08:54:04;1.43;;;1.10;;
48205;SDS011;33995;48.202;16.260;2023-04-24T08:56:31;1.10;;;1.03;;
48205;SDS011;33995;48.202;16.260;2023-04-24T08:59:04;1.13;;;1.00;;
48205;SDS011;33995;48.202;16.260;2023-04-24T09:01:32;1.23;;;0.90;;
48205;SDS011;33995;48.202;16.260;2023-04-24T09:04:02;1.00;;;0.90;;
48205;SDS011;33995;48.202;16.260;2023-04-24T09:06:30;1.63;;;0.90;;
48205;SDS011;33995;48.202;16.260;2023-04-24T09:09:02;0.77;;;0.77;;
48205;SDS011;33995;48.202;16.260;2023-04-24T09:11:30;1.20;;;0.80;;
48205;SDS011;33995;48.202;16.260;2023-04-24T09:14:00;1.07;;;0.90;;
48205;SDS011;33995;48.202;16.260;2023-04-24T09:16:28;1.80;;;0.83;;
48205;SDS011;33995;48.202;16.260;2023-04-24T09:18:56;0.63;;;0.63;;
48205;SDS011;33995;48.202;16.260;2023-04-24T09:21:23;1.00;;;0.87;;
48205;SDS011;33995;48.202;16.260;2023-04-24T09:24:00;0.80;;;0.80;;
48205;SDS011;33995;48.202;16.260;2023-04-24T09:26:30;1.33;;;0.97;;
48205;SDS011;33995;48.202;16.260;2023-04-24T09:28:59;1.40;;;0.90;;
48205;SDS011;33995;48.202;16.260;2023-04-24T09:31:28;2.23;;;1.10;;
48205;SDS011;33995;48.202;16.260;2023-04-24T09:34:00;1.73;;;0.80;;
48205;SDS011;33995;48.202;16.260;2023-04-24T09:36:38;1.20;;;1.00;;
48205;SDS011;33995;48.202;16.260;2023-04-24T09:39:10;0.90;;;0.90;;
48205;SDS011;33995;48.202;16.260;2023-04-24T09:41:44;1.53;;;0.90;;
48205;SDS011;33995;48.202;16.260;2023-04-24T09:44:16;1.73;;;1.00;;
48205;SDS011;33995;48.202;16.260;2023-04-24T09:46:44;1.57;;;0.97;;
48205;SDS011;33995;48.202;16.260;2023-04-24T09:49:16;1.00;;;1.00;;
48205;SDS011;33995;48.202;16.260;2023-04-24T09:51:48;1.27;;;0.80;;
48205;SDS011;33995;48.202;16.260;2023-04-24T09:56:45;1.40;;;0.90;;
48205;SDS011;33995;48.202;16.260;2023-04-24T09:59:14;2.33;;;1.07;;
48205;SDS011;33995;48.202;16.260;2023-04-24T10:01:43;1.17;;;1.00;;
48205;SDS011;33995;48.202;16.260;2023-04-24T10:04:21;1.63;;;1.00;;
48205;SDS011;33995;48.202;16.260;2023-04-24T10:06:51;1.63;;;0.90;;
48205;SDS011;33995;48.202;16.260;2023-04-24T10:09:25;0.87;;;0.87;;
48205;SDS011;33995;48.202;16.260;2023-04-24T10:11:54;1.80;;;1.00;;
48205;SDS011;33995;48.202;16.260;2023-04-24T10:14:22;1.87;;;1.00;;
48205;SDS011;33995;48.202;16.260;2023-04-24T10:16:53;1.03;;;0.90;;
48205;SDS011;33995;48.202;16.260;2023-04-24T10:19:25;0.83;;;0.83;;
48205;SDS011;33995;48.202;16.260;2023-04-24T10:21:52;1.40;;;1.00;;
48205;SDS011;33995;48.202;16.260;2023-04-24T10:24:22;1.00;;;1.00;;
48205;SDS011;33995;48.202;16.260;2023-04-24T10:26:49;1.47;;;1.07;;
48205;SDS011;33995;48.202;16.260;2023-04-24T10:29:17;1.10;;;1.00;;
48205;SDS011;33995;48.202;16.260;2023-04-24T10:31:45;1.27;;;1.17;;
48205;SDS011;33995;48.202;16.260;2023-04-24T10:34:15;1.10;;;1.10;;
48205;SDS011;33995;48.202;16.260;2023-04-24T10:36:45;1.20;;;0.90;;
48205;SDS011;33995;48.202;16.260;2023-04-24T10:39:17;1.30;;;1.20;;
48205;SDS011;33995;48.202;16.260;2023-04-24T10:41:53;1.60;;;1.30;;
48205;SDS011;33995;48.202;16.260;2023-04-24T10:44:24;1.30;;;1.20;;
48205;SDS011;33995;48.202;16.260;2023-04-24T10:46:54;1.30;;;1.20;;
48205;SDS011;33995;48.202;16.260;2023-04-24T10:49:29;1.17;;;0.90;;
48205;SDS011;33995;48.202;16.260;2023-04-24T10:52:01;1.23;;;1.10;;
48205;SDS011;33995;48.202;16.260;2023-04-24T10:54:36;1.40;;;1.10;;
48205;SDS011;33995;48.202;16.260;2023-04-24T10:59:52;1.73;;;1.03;;
48205;SDS011;33995;48.202;16.260;2023-04-24T11:02:45;1.63;;;1.10;;
48205;SDS011;33995;48.202;16.260;2023-04-24T11:05:19;1.30;;;1.20;;
48205;SDS011;33995;48.202;16.260;2023-04-24T11:10:46;1.20;;;1.10;;
48205;SDS011;33995;48.202;16.260;2023-04-24T11:16:28;1.40;;;1.30;;
48205;SDS011;33995;48.202;16.260;2023-04-24T11:19:08;1.93;;;1.23;;
48205;SDS011;33995;48.202;16.260;2023-04-24T11:27:16;1.30;;;1.20;;
48205;SDS011;33995;48.202;16.260;2023-04-24T11:34:54;1.23;;;1.13;;
48205;SDS011;33995;48.202;16.260;2023-04-24T11:37:26;1.50;;;1.20;;
48205;SDS011;33995;48.202;16.260;2023-04-24T11:40:23;1.63;;;1.47;;
48205;SDS011;33995;48.202;16.260;2023-04-24T11:42:52;2.00;;;1.43;;
48205;SDS011;33995;48.202;16.260;2023-04-24T11:45:24;1.40;;;1.30;;
48205;SDS011;33995;48.202;16.260;2023-04-24T11:47:54;1.50;;;1.40;;
48205;SDS011;33995;48.202;16.260;2023-04-24T11:50:21;1.80;;;1.50;;
48205;SDS011;33995;48.202;16.260;2023-04-24T11:52:51;2.73;;;1.33;;
48205;SDS011;33995;48.202;16.260;2023-04-24T11:55:26;1.70;;;1.60;;
48205;SDS011;33995;48.202;16.260;2023-04-24T11:57:55;2.00;;;1.80;;
48205;SDS011;33995;48.202;16.260;2023-04-24T12:00:27;2.20;;;2.00;;
48205;SDS011;33995;48.202;16.260;2023-04-24T12:03:06;2.37;;;2.10;;
48205;SDS011;33995;48.202;16.260;2023-04-24T12:05:38;2.60;;;2.40;;
48205;SDS011;33995;48.202;16.260;2023-04-24T12:08:06;2.30;;;2.10;;
48205;SDS011;33995;48.202;16.260;2023-04-24T12:10:33;2.40;;;2.00;;
48205;SDS011;33995;48.202;16.260;2023-04-24T12:13:01;2.60;;;1.90;;
48205;SDS011;33995;48.202;16.260;2023-04-24T12:15:29;4.53;;;4.13;;
48205;SDS011;33995;48.202;16.260;2023-04-24T12:17:56;3.70;;;3.40;;
48205;SDS011;33995;48.202;16.260;2023-04-24T12:20:29;5.00;;;4.60;;
48205;SDS011;33995;48.202;16.260;2023-04-24T12:22:58;4.60;;;4.20;;
48205;SDS011;33995;48.202;16.260;2023-04-24T12:25:29;4.50;;;4.10;;
48205;SDS011;33995;48.202;16.260;2023-04-24T12:30:32;4.03;;;3.70;;
48205;SDS011;33995;48.202;16.260;2023-04-24T12:33:01;3.90;;;3.60;;
48205;SDS011;33995;48.202;16.260;2023-04-24T12:35:31;3.30;;;3.10;;
48205;SDS011;33995;48.202;16.260;2023-04-24T12:38:06;2.70;;;2.50;;
48205;SDS011;33995;48.202;16.260;2023-04-24T12:40:41;2.20;;;2.10;;
48205;SDS011;33995;48.202;16.260;2023-04-24T12:43:13;2.10;;;1.90;;
48205;SDS011;33995;48.202;16.260;2023-04-24T12:45:43;1.70;;;1.60;;
48205;SDS011;33995;48.202;16.260;2023-04-24T12:48:14;2.23;;;2.00;;
48205;SDS011;33995;48.202;16.260;2023-04-24T12:50:43;4.83;;;4.43;;
48205;SDS011;33995;48.202;16.260;2023-04-24T12:53:13;3.63;;;3.33;;
48205;SDS011;33995;48.202;16.260;2023-04-24T12:55:42;6.13;;;5.63;;
48205;SDS011;33995;48.202;16.260;2023-04-24T12:58:09;6.70;;;6.10;;
48205;SDS011;33995;48.202;16.260;2023-04-24T13:00:36;9.70;;;8.80;;
48205;SDS011;33995;48.202;16.260;2023-04-24T13:03:08;9.33;;;8.43;;
48205;SDS011;33995;48.202;16.260;2023-04-24T13:05:35;12.27;;;11.03;;
48205;SDS011;33995;48.202;16.260;2023-04-24T13:08:04;11.07;;;9.97;;
48205;SDS011;33995;48.202;16.260;2023-04-24T13:10:31;7.43;;;6.73;;
48205;SDS011;33995;48.202;16.260;2023-04-24T13:13:02;5.60;;;5.10;;
48205;SDS011;33995;48.202;16.260;2023-04-24T13:15:29;4.50;;;4.10;;
48205;SDS011;33995;48.202;16.260;2023-04-24T13:17:56;3.70;;;3.40;;
48205;SDS011;33995;48.202;16.260;2023-04-24T13:20:24;4.10;;;3.80;;
48205;SDS011;33995;48.202;16.260;2023-04-24T13:22:51;2.97;;;2.77;;
48205;SDS011;33995;48.202;16.260;2023-04-24T13:25:19;2.60;;;2.40;;
48205;SDS011;33995;48.202;16.260;2023-04-24T13:27:46;2.37;;;2.20;;
48205;SDS011;33995;48.202;16.260;2023-04-24T13:30:13;2.37;;;2.17;;
48205;SDS011;33995;48.202;16.260;2023-04-24T13:32:40;2.73;;;2.50;;
48205;SDS011;33995;48.202;16.260;2023-04-24T13:35:08;3.60;;;3.30;;
48205;SDS011;33995;48.202;16.260;2023-04-24T13:37:35;3.87;;;3.57;;
48205;SDS011;33995;48.202;16.260;2023-04-24T13:40:02;4.40;;;4.00;;
48205;SDS011;33995;48.202;16.260;2023-04-24T13:42:33;4.30;;;3.90;;
48205;SDS011;33995;48.202;16.260;2023-04-24T13:45:00;5.30;;;4.83;;
48205;SDS011;33995;48.202;16.260;2023-04-24T13:47:47;4.50;;;4.10;;
48205;SDS011;33995;48.202;16.260;2023-04-24T13:50:20;2.80;;;2.60;;
48205;SDS011;33995;48.202;16.260;2023-04-24T13:52:48;3.70;;;3.40;;
48205;SDS011;33995;48.202;16.260;2023-04-24T13:55:15;4.87;;;4.37;;
48205;SDS011;33995;48.202;16.260;2023-04-24T13:57:42;4.10;;;3.70;;
48205;SDS011;33995;48.202;16.260;2023-04-24T14:00:10;2.90;;;2.30;;
48205;SDS011;33995;48.202;16.260;2023-04-24T14:02:38;2.73;;;2.00;;
48205;SDS011;33995;48.202;16.260;2023-04-24T14:05:05;2.43;;;2.13;;
48205;SDS011;33995;48.202;16.260;2023-04-24T14:07:33;4.20;;;2.43;;
48205;SDS011;33995;48.202;16.260;2023-04-24T14:10:00;2.70;;;2.50;;
48205;SDS011;33995;48.202;16.260;2023-04-24T14:12:27;3.70;;;3.40;;
48205;SDS011;33995;48.202;16.260;2023-04-24T14:14:54;4.53;;;4.17;;
48205;SDS011;33995;48.202;16.260;2023-04-24T14:17:21;5.70;;;5.20;;
48205;SDS011;33995;48.202;16.260;2023-04-24T14:19:48;4.30;;;3.90;;
48205;SDS011;33995;48.202;16.260;2023-04-24T14:22:17;3.50;;;3.20;;
48205;SDS011;33995;48.202;16.260;2023-04-24T14:24:44;5.40;;;5.00;;
48205;SDS011;33995;48.202;16.260;2023-04-24T14:27:12;6.33;;;4.97;;
48205;SDS011;33995;48.202;16.260;2023-04-24T14:29:41;6.33;;;5.70;;
48205;SDS011;33995;48.202;16.260;2023-04-24T14:32:08;5.30;;;4.80;;
48205;SDS011;33995;48.202;16.260;2023-04-24T14:34:35;4.13;;;3.70;;
48205;SDS011;33995;48.202;16.260;2023-04-24T14:37:02;4.10;;;3.80;;
48205;SDS011;33995;48.202;16.260;2023-04-24T14:39:29;6.83;;;6.07;;
48205;SDS011;33995;48.202;16.260;2023-04-24T14:41:56;15.00;;;10.23;;
48205;SDS011;33995;48.202;16.260;2023-04-24T14:44:23;17.30;;;13.43;;
48205;SDS011;33995;48.202;16.260;2023-04-24T14:46:51;8.00;;;7.30;;
48205;SDS011;33995;48.202;16.260;2023-04-24T14:49:18;6.60;;;6.00;;
48205;SDS011;33995;48.202;16.260;2023-04-24T14:51:45;3.23;;;2.93;;
48205;SDS011;33995;48.202;16.260;2023-04-24T14:54:13;2.90;;;2.50;;
48205;SDS011;33995;48.202;16.260;2023-04-24T14:56:41;3.30;;;3.00;;
48205;SDS011;33995;48.202;16.260;2023-04-24T14:59:11;3.43;;;3.13;;
48205;SDS011;33995;48.202;16.260;2023-04-24T15:01:38;3.27;;;2.93;;
48205;SDS011;33995;48.202;16.260;2023-04-24T15:04:06;2.77;;;2.57;;
48205;SDS011;33995;48.202;16.260;2023-04-24T15:06:33;3.53;;;3.03;;
48205;SDS011;33995;48.202;16.260;2023-04-24T15:09:00;4.27;;;3.30;;
48205;SDS011;33995;48.202;16.260;2023-04-24T15:11:27;4.13;;;3.83;;